createdAt,value
2023-03-17T00:02:31.953Z,466.00
2023-03-17T00:06:31.983Z,467.00
2023-03-17T00:10:32.854Z,472.00
2023-03-17T00:14:31.924Z,471.00
2023-03-17T00:18:31.980Z,470.00
2023-03-17T00:22:32.027Z,470.00
2023-03-17T00:26:32.044Z,471.00
2023-03-17T00:30:32.476Z,471.00
2023-03-17T00:34:32.201Z,473.00
2023-03-17T00:38:32.166Z,471.00
2023-03-17T00:42:32.217Z,472.00
2023-03-17T00:46:32.368Z,470.00
2023-03-17T00:50:32.789Z,471.00
2023-03-17T00:54:32.465Z,473.00
2023-03-17T00:58:32.470Z,470.00
2023-03-17T01:02:32.591Z,476.00
2023-03-17T01:06:32.658Z,476.00
2023-03-17T01:10:32.815Z,476.00
2023-03-17T01:14:32.868Z,475.00
2023-03-17T01:18:33.150Z,476.00
2023-03-17T01:22:33.272Z,483.00
2023-03-17T01:26:33.186Z,483.00
2023-03-17T01:30:33.370Z,482.00
2023-03-17T01:34:33.441Z,483.00
2023-03-17T01:38:33.905Z,480.00
2023-03-17T01:42:33.587Z,474.00
2023-03-17T01:46:33.828Z,473.00
2023-03-17T01:50:33.797Z,480.00
2023-03-17T01:54:33.910Z,476.00
2023-03-17T01:58:34.097Z,474.00
2023-03-17T02:02:34.274Z,471.00
2023-03-17T02:06:35.833Z,476.00
2023-03-17T02:10:34.308Z,480.00
2023-03-17T02:14:34.280Z,478.00
2023-03-17T02:18:34.314Z,476.00
2023-03-17T02:22:34.131Z,481.00
2023-03-17T02:26:34.102Z,472.00
2023-03-17T02:30:34.111Z,471.00
2023-03-17T02:34:34.126Z,467.00
2023-03-17T02:38:34.098Z,467.00
2023-03-17T02:42:34.097Z,471.00
2023-03-17T02:46:33.970Z,468.00
2023-03-17T02:50:34.381Z,474.00
2023-03-17T02:54:33.815Z,470.00
2023-03-17T02:58:33.902Z,471.00
2023-03-17T03:02:33.940Z,475.00
2023-03-17T03:06:33.988Z,478.00
2023-03-17T03:10:34.072Z,480.00
2023-03-17T03:14:34.192Z,472.00
2023-03-17T03:18:34.343Z,473.00
2023-03-17T03:22:34.501Z,474.00
2023-03-17T03:26:34.666Z,471.00
2023-03-17T03:30:34.797Z,469.00
2023-03-17T03:34:35.003Z,467.00
2023-03-17T03:38:35.099Z,471.00
2023-03-17T03:42:35.293Z,468.00
2023-03-17T03:46:35.490Z,465.00
2023-03-17T03:50:35.612Z,465.00
2023-03-17T03:54:35.750Z,463.00
2023-03-17T03:58:35.900Z,462.00
2023-03-17T04:02:36.097Z,464.00
2023-03-17T04:06:36.240Z,463.00
2023-03-17T04:10:36.430Z,462.00
2023-03-17T04:14:36.636Z,460.00
2023-03-17T04:18:36.816Z,462.00
2023-03-17T04:22:36.879Z,459.00
2023-03-17T04:26:36.977Z,462.00
2023-03-17T04:30:36.960Z,461.00
2023-03-17T04:34:37.106Z,461.00
2023-03-17T04:38:37.114Z,461.00
2023-03-17T04:42:37.082Z,463.00
2023-03-17T04:46:37.355Z,463.00
2023-03-17T04:50:37.025Z,462.00
2023-03-17T04:54:36.954Z,461.00
2023-03-17T04:58:36.963Z,463.00
2023-03-17T05:02:36.929Z,463.00
2023-03-17T05:06:36.813Z,464.00
2023-03-17T05:10:36.887Z,466.00
2023-03-17T05:14:36.760Z,462.00
2023-03-17T05:18:36.829Z,462.00
2023-03-17T05:22:36.754Z,463.00
2023-03-17T05:26:36.921Z,464.00
2023-03-17T05:30:36.803Z,466.00
2023-03-17T05:34:36.917Z,465.00
2023-03-17T05:38:37.107Z,466.00
2023-03-17T05:42:37.177Z,459.00
2023-03-17T05:46:37.411Z,460.00
2023-03-17T05:50:37.470Z,461.00
2023-03-17T05:54:37.546Z,465.00
2023-03-17T05:58:38.383Z,465.00
2023-03-17T06:02:38.010Z,463.00
2023-03-17T06:06:37.934Z,459.00
2023-03-17T06:10:38.045Z,461.00
2023-03-17T06:14:38.192Z,462.00
2023-03-17T06:18:38.302Z,462.00
2023-03-17T06:22:42.352Z,463.00
2023-03-17T06:26:41.577Z,468.00
2023-03-17T06:34:57.126Z,461.00
2023-03-17T06:39:00.310Z,566.00
2023-03-17T06:42:57.049Z,706.00
2023-03-17T06:46:57.400Z,851.00
2023-03-17T06:50:57.506Z,857.00
2023-03-17T06:54:57.245Z,854.00
2023-03-17T06:58:56.997Z,859.00
2023-03-17T07:02:57.440Z,863.00
2023-03-17T07:06:57.372Z,858.00
2023-03-17T07:10:56.832Z,853.00
2023-03-17T07:14:57.033Z,851.00
2023-03-17T07:18:57.903Z,846.00
2023-03-17T07:22:57.124Z,840.00
2023-03-17T07:26:56.727Z,841.00
2023-03-17T07:30:56.909Z,839.00
2023-03-17T07:34:56.686Z,1072.00
2023-03-17T07:38:57.537Z,1165.00
2023-03-17T07:42:56.513Z,1126.00
2023-03-17T07:46:56.520Z,1108.00
2023-03-17T07:50:56.560Z,1234.00
2023-03-17T07:54:56.655Z,1133.00
2023-03-17T07:58:56.716Z,1069.00
2023-03-17T08:03:09.318Z,1013.00
2023-03-17T08:06:57.904Z,1142.00
2023-03-17T08:10:56.753Z,1016.00
2023-03-17T08:14:56.818Z,996.00
2023-03-17T08:18:56.880Z,964.00
2023-03-17T08:22:56.793Z,940.00
2023-03-17T08:26:58.106Z,936.00
2023-03-17T08:30:56.919Z,962.00
2023-03-17T08:34:56.811Z,1129.00
2023-03-17T08:38:56.826Z,1076.00
2023-03-17T08:42:56.823Z,1047.00
2023-03-17T08:46:56.809Z,1003.00
2023-03-17T08:50:56.885Z,969.00
2023-03-17T08:54:56.731Z,926.00
2023-03-17T08:58:57.406Z,898.00
2023-03-17T09:02:56.685Z,872.00
2023-03-17T09:07:03.657Z,849.00
2023-03-17T09:10:57.630Z,832.00
2023-03-17T09:14:57.108Z,808.00
2023-03-17T09:18:56.826Z,1045.00
2023-03-17T09:22:57.236Z,940.00
2023-03-17T09:26:57.385Z,993.00
2023-03-17T09:30:57.518Z,973.00
2023-03-17T09:34:57.897Z,946.00
2023-03-17T09:38:57.864Z,924.00
2023-03-17T09:42:57.944Z,1208.00
2023-03-17T09:46:57.807Z,1298.00
2023-03-17T09:50:57.936Z,1363.00
2023-03-17T09:54:58.026Z,1403.00
2023-03-17T09:58:58.140Z,1349.00
2023-03-17T10:02:58.274Z,1231.00
2023-03-17T10:06:58.383Z,1208.00
2023-03-17T10:10:59.789Z,1165.00
2023-03-17T10:14:59.985Z,1199.00
2023-03-17T10:19:00.128Z,1173.00
2023-03-17T10:22:59.186Z,1086.00
2023-03-17T10:26:59.680Z,1255.00
2023-03-17T10:30:59.343Z,1280.00
2023-03-17T10:34:59.576Z,1405.00
2023-03-17T10:38:59.741Z,1365.00
2023-03-17T10:43:00.549Z,1423.00
2023-03-17T10:46:59.632Z,1520.00
2023-03-17T10:50:59.705Z,1597.00
2023-03-17T10:54:59.601Z,1701.00
2023-03-17T10:58:59.512Z,1708.00
2023-03-17T11:02:59.588Z,1830.00
2023-03-17T11:06:59.357Z,1989.00
2023-03-17T11:11:00.398Z,1989.00
2023-03-17T11:14:59.431Z,1956.00
2023-03-17T11:18:59.337Z,2056.00
2023-03-17T11:22:59.293Z,2062.00
2023-03-17T11:26:59.169Z,1559.00
2023-03-17T11:30:59.155Z,1444.00
2023-03-17T11:34:59.470Z,1525.00
2023-03-17T11:38:59.127Z,1650.00
2023-03-17T11:42:59.203Z,1737.00
2023-03-17T11:46:59.568Z,1786.00
2023-03-17T11:50:59.572Z,1821.00
2023-03-17T11:55:00.306Z,1927.00
2023-03-17T11:58:59.816Z,1568.00
2023-03-17T12:03:00.540Z,1500.00
2023-03-17T12:07:00.080Z,1509.00
2023-03-17T12:11:00.931Z,1559.00
2023-03-17T12:15:00.214Z,1387.00
2023-03-17T12:19:00.496Z,1402.00
2023-03-17T12:23:00.512Z,1347.00
2023-03-17T12:27:00.638Z,1370.00
2023-03-17T12:31:00.625Z,1362.00
2023-03-17T12:35:00.556Z,1367.00
2023-03-17T12:39:00.511Z,1360.00
2023-03-17T12:43:00.480Z,1358.00
2023-03-17T12:47:00.449Z,1352.00
2023-03-17T12:51:00.424Z,1349.00
2023-03-17T12:55:00.378Z,1346.00
2023-03-17T12:59:00.308Z,1346.00
2023-03-17T13:03:00.291Z,1336.00
2023-03-17T13:07:00.260Z,1331.00
2023-03-17T13:11:00.234Z,1327.00
2023-03-17T13:15:00.152Z,1315.00
2023-03-17T13:19:00.130Z,1316.00
2023-03-17T13:23:00.192Z,1304.00
2023-03-17T13:27:00.090Z,1299.00
2023-03-17T13:31:00.109Z,1288.00
2023-03-17T13:35:00.007Z,1285.00
2023-03-17T13:39:17.665Z,1272.00
2023-03-17T13:43:00.976Z,1267.00
2023-03-17T13:46:59.939Z,1270.00
2023-03-17T13:50:59.855Z,1253.00
2023-03-17T13:54:59.783Z,1237.00
2023-03-17T13:58:59.859Z,1231.00
2023-03-17T14:02:59.739Z,1227.00
2023-03-17T14:06:59.688Z,1218.00
2023-03-17T14:10:59.658Z,1207.00
2023-03-17T14:14:59.625Z,1210.00
2023-03-17T14:18:59.618Z,1205.00
2023-03-17T14:22:59.629Z,1191.00
2023-03-17T14:26:59.663Z,1186.00
2023-03-17T14:30:59.809Z,1185.00
2023-03-17T14:34:59.806Z,1179.00
2023-03-17T14:38:59.807Z,1164.00
2023-03-17T14:43:00.001Z,1158.00
2023-03-17T14:46:59.927Z,1126.00
2023-03-17T14:51:00.102Z,1113.00
2023-03-17T14:55:00.113Z,1118.00
2023-03-17T14:59:00.360Z,1106.00
2023-03-17T15:03:00.333Z,1101.00
2023-03-17T15:07:00.414Z,1088.00
2023-03-17T15:11:00.474Z,1086.00
2023-03-17T15:15:00.658Z,1078.00
2023-03-17T15:19:00.749Z,1070.00
2023-03-17T15:23:00.899Z,1057.00
2023-03-17T15:27:00.974Z,1056.00
2023-03-17T15:31:01.208Z,1052.00
2023-03-17T15:35:01.626Z,1046.00
2023-03-17T15:39:01.338Z,1030.00
2023-03-17T15:43:01.449Z,1026.00
2023-03-17T15:47:01.628Z,1025.00
2023-03-17T15:51:01.793Z,1014.00
2023-03-17T15:55:01.908Z,1007.00
2023-03-17T15:59:02.207Z,1003.00
2023-03-17T16:03:02.381Z,991.00
2023-03-17T16:07:02.351Z,974.00
2023-03-17T16:11:02.314Z,967.00
2023-03-17T16:15:10.318Z,963.00
2023-03-17T16:19:03.160Z,949.00
2023-03-17T16:23:02.305Z,944.00
2023-03-17T16:27:02.286Z,936.00
2023-03-17T16:31:02.251Z,930.00
2023-03-17T16:35:02.134Z,917.00
2023-03-17T16:39:02.198Z,904.00
2023-03-17T16:43:02.163Z,894.00
2023-03-17T16:47:02.182Z,882.00
2023-03-17T16:51:02.111Z,871.00
2023-03-17T16:55:01.977Z,867.00
2023-03-17T16:59:01.959Z,861.00
2023-03-17T17:03:02.040Z,859.00
2023-03-17T17:07:01.909Z,839.00
2023-03-17T17:11:02.077Z,840.00
2023-03-17T17:15:01.892Z,831.00
2023-03-17T17:19:01.896Z,814.00
2023-03-17T17:23:01.896Z,806.00
2023-03-17T17:27:01.984Z,793.00
2023-03-17T17:31:01.929Z,789.00
2023-03-17T17:35:01.848Z,779.00
2023-03-17T17:39:02.131Z,762.00
2023-03-17T17:43:01.929Z,755.00
2023-03-17T17:47:02.036Z,738.00
2023-03-17T17:51:01.918Z,726.00
2023-03-17T17:55:01.874Z,720.00
2023-03-17T17:59:01.865Z,711.00
2023-03-17T18:03:02.050Z,707.00
2023-03-17T18:07:02.111Z,701.00
2023-03-17T18:11:02.045Z,688.00
2023-03-17T18:15:03.116Z,672.00
2023-03-17T18:19:02.231Z,654.00
2023-03-17T18:23:02.290Z,651.00
2023-03-17T18:27:02.442Z,647.00
2023-03-17T18:31:02.564Z,642.00
2023-03-17T18:35:02.729Z,636.00
2023-03-17T18:39:02.900Z,621.00
2023-03-17T18:43:03.080Z,603.00
2023-03-17T18:47:03.197Z,588.00
2023-03-17T18:51:03.519Z,578.00
2023-03-17T18:55:03.500Z,574.00
2023-03-17T18:59:03.450Z,566.00
2023-03-17T19:03:03.369Z,559.00
2023-03-17T19:07:03.336Z,572.00
2023-03-17T19:11:03.386Z,573.00
2023-03-17T19:15:03.273Z,567.00
2023-03-17T19:19:03.228Z,568.00
2023-03-17T19:23:03.129Z,570.00
2023-03-17T19:27:03.092Z,571.00
2023-03-17T19:31:03.118Z,563.00
2023-03-17T19:35:03.028Z,566.00
2023-03-17T19:39:03.625Z,563.00
2023-03-17T19:43:03.279Z,562.00
2023-03-17T19:47:03.238Z,559.00
2023-03-17T19:51:03.128Z,559.00
2023-03-17T19:55:03.149Z,554.00
2023-03-17T19:59:03.062Z,557.00
2023-03-17T20:03:03.029Z,558.00
2023-03-17T20:07:03.062Z,558.00
2023-03-17T20:11:02.990Z,563.00
2023-03-17T20:15:02.948Z,565.00
2023-03-17T20:19:03.020Z,561.00
2023-03-17T20:23:02.945Z,563.00
2023-03-17T20:27:02.884Z,569.00
2023-03-17T20:31:03.035Z,567.00
2023-03-17T20:35:02.930Z,561.00
2023-03-17T20:39:02.792Z,566.00
2023-03-17T20:43:02.761Z,572.00
2023-03-17T20:47:02.748Z,580.00
2023-03-17T20:51:02.708Z,578.00
2023-03-17T20:55:02.608Z,576.00
2023-03-17T20:59:02.680Z,581.00
2023-03-17T21:03:02.926Z,577.00
2023-03-17T21:07:03.038Z,582.00
2023-03-17T21:11:03.278Z,576.00
2023-03-17T21:15:03.372Z,575.00
2023-03-17T21:19:03.357Z,577.00
2023-03-17T21:23:03.312Z,584.00
2023-03-17T21:27:03.279Z,582.00
2023-03-17T21:31:03.312Z,585.00
2023-03-17T21:35:03.251Z,585.00
2023-03-17T21:39:03.195Z,583.00
2023-03-17T21:43:03.166Z,588.00
2023-03-17T21:47:03.131Z,585.00
2023-03-17T21:51:03.036Z,591.00
2023-03-17T21:55:03.284Z,593.00
2023-03-17T21:59:03.212Z,593.00
2023-03-17T22:03:03.155Z,594.00
2023-03-17T22:07:03.092Z,596.00
2023-03-17T22:11:03.094Z,597.00
2023-03-17T22:15:03.036Z,595.00
2023-03-17T22:19:03.010Z,598.00
2023-03-17T22:23:02.989Z,592.00
2023-03-17T22:27:02.910Z,595.00
2023-03-17T22:31:02.926Z,597.00
2023-03-17T22:35:03.053Z,589.00
2023-03-17T22:39:02.985Z,593.00
2023-03-17T22:43:02.993Z,597.00
2023-03-17T22:47:02.950Z,596.00
2023-03-17T22:51:02.912Z,598.00
2023-03-17T22:55:02.866Z,598.00
2023-03-17T22:59:02.869Z,597.00
2023-03-17T23:03:02.826Z,601.00
2023-03-17T23:07:02.717Z,605.00
2023-03-17T23:11:02.712Z,601.00
2023-03-17T23:15:02.705Z,593.00
2023-03-17T23:19:02.633Z,597.00
2023-03-17T23:23:02.774Z,597.00
2023-03-17T23:27:02.950Z,594.00
2023-03-17T23:31:03.056Z,593.00
2023-03-17T23:35:03.209Z,595.00
2023-03-17T23:39:03.299Z,596.00
2023-03-17T23:43:03.378Z,591.00
2023-03-17T23:47:03.417Z,595.00
2023-03-17T23:51:03.422Z,600.00
2023-03-17T23:55:04.206Z,596.00
2023-03-17T23:59:03.462Z,590.00
